createdAt,value
2022-12-11T00:00:29.488Z,41.17
2022-12-11T00:02:57.081Z,35.38
2022-12-11T00:05:24.447Z,40.22
2022-12-11T00:07:51.812Z,36.42
2022-12-11T00:10:20.114Z,42.72
2022-12-11T00:12:47.410Z,49.17
2022-12-11T00:15:14.764Z,49.05
2022-12-11T00:17:42.100Z,30.83
2022-12-11T00:20:09.893Z,35.95
2022-12-11T00:22:37.266Z,25.10
2022-12-11T00:25:04.989Z,32.63
2022-12-11T00:27:32.397Z,52.47
2022-12-11T00:30:00.292Z,39.08
2022-12-11T00:32:28.553Z,47.65
2022-12-11T00:34:56.177Z,42.28
2022-12-11T00:37:24.047Z,34.72
2022-12-11T00:39:51.484Z,64.72
2022-12-11T00:42:18.836Z,59.30
2022-12-11T00:44:46.173Z,48.45
2022-12-11T00:47:13.453Z,39.15
2022-12-11T00:49:45.108Z,36.75
2022-12-11T00:52:17.942Z,40.10
2022-12-11T00:54:45.570Z,43.42
2022-12-11T00:57:12.900Z,42.63
2022-12-11T00:59:40.310Z,52.63
2022-12-11T01:02:07.638Z,47.95
2022-12-11T01:04:36.759Z,58.10
2022-12-11T01:07:04.129Z,37.53
2022-12-11T01:09:49.985Z,40.67
2022-12-11T01:12:17.283Z,47.20
2022-12-11T01:14:44.640Z,50.35
2022-12-11T01:17:11.954Z,47.65
2022-12-11T01:19:39.279Z,36.10
2022-12-11T01:22:06.572Z,62.45
2022-12-11T01:24:34.022Z,41.92
2022-12-11T01:27:01.333Z,46.00
2022-12-11T01:29:28.618Z,38.88
2022-12-11T01:31:55.903Z,75.07
2022-12-11T01:34:23.216Z,40.53
2022-12-11T01:36:52.379Z,41.60
2022-12-11T01:39:19.670Z,37.50
2022-12-11T01:41:47.086Z,43.95
2022-12-11T01:44:14.673Z,40.13
2022-12-11T01:46:43.090Z,32.05
2022-12-11T01:49:15.181Z,37.38
2022-12-11T01:51:49.840Z,39.60
2022-12-11T01:54:19.176Z,25.75
2022-12-11T01:56:48.219Z,33.97
2022-12-11T01:59:20.687Z,29.60
2022-12-11T02:01:54.343Z,31.10
2022-12-11T02:04:22.159Z,34.15
2022-12-11T02:06:51.975Z,30.33
2022-12-11T02:09:23.772Z,35.40
2022-12-11T02:12:04.553Z,43.80
2022-12-11T02:14:40.701Z,31.33
2022-12-11T02:17:23.471Z,41.60
2022-12-11T02:20:10.016Z,40.75
2022-12-11T02:22:59.519Z,28.17
2022-12-11T02:26:06.598Z,35.53
2022-12-11T02:28:49.002Z,24.90
2022-12-11T02:31:16.232Z,32.55
2022-12-11T02:33:55.193Z,35.72
2022-12-11T02:36:26.406Z,31.73
2022-12-11T02:38:56.974Z,27.88
2022-12-11T02:41:25.831Z,29.27
2022-12-11T02:43:55.368Z,29.95
2022-12-11T02:46:24.466Z,29.40
2022-12-11T02:48:53.793Z,28.85
2022-12-11T02:51:26.878Z,37.90
2022-12-11T02:53:58.054Z,29.58
2022-12-11T02:56:38.221Z,31.83
2022-12-11T02:59:13.104Z,28.70
2022-12-11T03:01:40.495Z,28.42
2022-12-11T03:04:08.002Z,26.35
2022-12-11T03:06:48.418Z,24.48
2022-12-11T03:09:15.847Z,24.13
2022-12-11T03:11:43.136Z,26.65
2022-12-11T03:14:11.413Z,18.08
2022-12-11T03:16:47.157Z,18.45
2022-12-11T03:19:41.435Z,17.40
2022-12-11T03:22:10.592Z,15.23
2022-12-11T03:25:02.631Z,16.98
2022-12-11T03:27:50.640Z,19.63
2022-12-11T03:30:20.364Z,12.57
2022-12-11T03:33:02.931Z,19.75
2022-12-11T03:35:34.853Z,16.45
2022-12-11T03:38:06.894Z,17.15
2022-12-11T03:40:36.111Z,25.13
2022-12-11T03:43:05.973Z,16.70
2022-12-11T03:45:34.692Z,18.20
2022-12-11T03:48:03.202Z,20.80
2022-12-11T03:50:32.616Z,23.55
2022-12-11T03:53:01.606Z,18.60
2022-12-11T03:55:30.387Z,25.02
2022-12-11T03:57:57.777Z,21.42
2022-12-11T04:00:25.169Z,20.30
2022-12-11T04:03:13.664Z,18.05
2022-12-11T04:05:47.632Z,13.90
2022-12-11T04:08:16.265Z,18.42
2022-12-11T04:10:43.977Z,21.60
2022-12-11T04:13:11.759Z,23.35
2022-12-11T04:15:40.090Z,22.08
2022-12-11T04:18:26.809Z,20.98
2022-12-11T04:21:14.163Z,19.60
2022-12-11T04:23:59.980Z,24.30
2022-12-11T04:26:27.416Z,22.50
2022-12-11T04:28:54.746Z,20.40
2022-12-11T04:31:22.946Z,19.85
2022-12-11T04:33:50.356Z,20.65
2022-12-11T04:36:17.659Z,20.10
2022-12-11T04:38:44.962Z,13.43
2022-12-11T04:41:14.604Z,19.00
2022-12-11T04:43:45.266Z,22.52
2022-12-11T04:46:18.569Z,22.60
2022-12-11T04:48:46.691Z,18.60
2022-12-11T04:51:14.744Z,22.98
2022-12-11T04:53:42.525Z,23.42
2022-12-11T04:56:11.959Z,25.17
2022-12-11T04:58:40.719Z,20.40
2022-12-11T05:01:19.456Z,17.33
2022-12-11T05:03:47.235Z,23.52
2022-12-11T05:06:14.704Z,16.83
2022-12-11T05:08:43.288Z,19.33
2022-12-11T05:11:13.093Z,15.65
2022-12-11T05:13:40.910Z,19.33
2022-12-11T05:16:12.530Z,18.17
2022-12-11T05:18:40.127Z,21.48
2022-12-11T05:21:09.855Z,21.45
2022-12-11T05:23:37.258Z,16.73
2022-12-11T05:26:07.445Z,18.50
2022-12-11T05:28:36.935Z,17.90
2022-12-11T05:31:18.654Z,17.92
2022-12-11T05:33:46.864Z,18.15
2022-12-11T05:36:21.228Z,20.65
2022-12-11T05:38:48.782Z,21.20
2022-12-11T05:41:19.999Z,20.95
2022-12-11T05:43:47.409Z,19.80
2022-12-11T05:46:16.854Z,18.63
2022-12-11T05:48:46.165Z,18.52
2022-12-11T05:51:15.360Z,17.80
2022-12-11T05:53:43.958Z,18.42
2022-12-11T05:56:20.631Z,18.73
2022-12-11T05:58:48.859Z,23.02
2022-12-11T06:01:20.745Z,21.65
2022-12-11T06:03:48.099Z,16.67
2022-12-11T06:06:15.866Z,18.27
2022-12-11T06:08:43.430Z,14.80
2022-12-11T06:11:13.279Z,18.85
2022-12-11T06:13:40.871Z,20.48
2022-12-11T06:16:10.175Z,22.48
2022-12-11T06:18:45.071Z,22.60
2022-12-11T06:21:17.971Z,20.27
2022-12-11T06:23:47.564Z,20.38
2022-12-11T06:26:16.635Z,25.02
2022-12-11T06:28:44.091Z,25.08
2022-12-11T06:31:11.880Z,19.52
2022-12-11T06:33:40.073Z,16.35
2022-12-11T06:36:10.687Z,19.55
2022-12-11T06:38:38.737Z,19.25
2022-12-11T06:41:07.726Z,22.70
2022-12-11T06:43:36.370Z,17.40
2022-12-11T06:46:05.526Z,16.52
2022-12-11T06:48:33.171Z,19.13
2022-12-11T06:51:04.530Z,23.90
2022-12-11T06:53:31.952Z,21.27
2022-12-11T06:56:07.500Z,25.30
2022-12-11T06:58:36.219Z,22.70
2022-12-11T07:01:04.873Z,21.20
2022-12-11T07:03:32.270Z,28.55
2022-12-11T07:06:03.386Z,22.63
2022-12-11T07:08:32.014Z,19.15
2022-12-11T07:11:08.542Z,20.73
2022-12-11T07:13:36.496Z,21.85
2022-12-11T07:16:05.791Z,20.05
2022-12-11T07:18:33.133Z,15.45
2022-12-11T07:21:00.648Z,18.30
2022-12-11T07:23:28.885Z,15.32
2022-12-11T07:25:56.627Z,20.23
2022-12-11T07:28:24.111Z,16.77
2022-12-11T07:30:51.500Z,17.33
2022-12-11T07:33:18.846Z,20.35
2022-12-11T07:35:46.179Z,20.88
2022-12-11T07:38:13.499Z,22.33
2022-12-11T07:40:41.006Z,22.25
2022-12-11T07:43:08.344Z,19.15
2022-12-11T07:45:35.727Z,18.20
2022-12-11T07:48:03.311Z,11.85
2022-12-11T07:50:32.889Z,18.80
2022-12-11T07:53:03.922Z,15.18
2022-12-11T07:55:32.256Z,21.38
2022-12-11T07:57:59.603Z,18.30
2022-12-11T08:00:26.943Z,18.35
2022-12-11T08:02:54.350Z,21.88
2022-12-11T08:05:22.631Z,20.58
2022-12-11T08:07:50.052Z,21.63
2022-12-11T08:10:17.666Z,18.77
2022-12-11T08:12:44.966Z,19.83
2022-12-11T08:15:12.473Z,18.77
2022-12-11T08:17:40.440Z,17.48
2022-12-11T08:20:08.611Z,16.42
2022-12-11T08:22:36.269Z,17.33
2022-12-11T08:25:03.833Z,23.58
2022-12-11T08:27:31.396Z,16.52
2022-12-11T08:29:58.698Z,18.15
2022-12-11T08:32:26.005Z,17.60
2022-12-11T08:34:53.384Z,18.23
2022-12-11T08:37:20.691Z,15.10
2022-12-11T08:39:49.117Z,18.45
2022-12-11T08:42:16.695Z,18.70
2022-12-11T08:44:44.020Z,17.98
2022-12-11T08:47:11.404Z,18.80
2022-12-11T08:49:38.757Z,20.75
2022-12-11T08:52:06.275Z,19.95
2022-12-11T08:54:33.753Z,16.08
2022-12-11T08:57:01.088Z,25.40
2022-12-11T08:59:28.629Z,22.15
2022-12-11T09:01:56.627Z,18.83
2022-12-11T09:04:24.050Z,18.67
2022-12-11T09:06:51.344Z,18.52
2022-12-11T09:09:18.803Z,21.20
2022-12-11T09:11:46.465Z,22.58
2022-12-11T09:14:13.934Z,18.15
2022-12-11T09:16:41.769Z,18.13
2022-12-11T09:19:13.748Z,20.42
2022-12-11T09:21:42.844Z,16.10
2022-12-11T09:24:11.640Z,20.25
2022-12-11T09:26:40.071Z,15.68
2022-12-11T09:29:07.783Z,20.08
2022-12-11T09:31:36.652Z,20.50
2022-12-11T09:34:07.529Z,21.60
2022-12-11T09:36:35.594Z,15.90
2022-12-11T09:39:05.838Z,17.80
2022-12-11T09:41:37.623Z,18.10
2022-12-11T09:44:24.150Z,20.20
2022-12-11T09:46:52.169Z,17.70
2022-12-11T09:49:37.598Z,18.10
2022-12-11T09:52:18.739Z,22.05
2022-12-11T09:55:16.706Z,20.77
2022-12-11T09:58:10.324Z,21.77
2022-12-11T10:00:40.865Z,21.45
2022-12-11T10:03:26.951Z,16.95
2022-12-11T10:06:23.152Z,18.58
2022-12-11T10:09:08.794Z,18.17
2022-12-11T10:11:57.999Z,20.65
2022-12-11T10:14:51.757Z,17.95
2022-12-11T10:17:31.289Z,22.05
2022-12-11T10:20:05.792Z,18.70
2022-12-11T10:22:33.977Z,15.68
2022-12-11T10:25:12.844Z,14.38
2022-12-11T10:27:41.499Z,19.55
2022-12-11T10:30:18.439Z,13.88
2022-12-11T10:33:20.644Z,17.05
2022-12-11T10:35:54.843Z,20.88
2022-12-11T10:38:28.391Z,19.95
2022-12-11T10:41:02.500Z,16.15
2022-12-11T10:43:38.508Z,17.77
2022-12-11T10:46:12.886Z,16.60
2022-12-11T10:48:55.438Z,17.17
2022-12-11T10:51:25.613Z,12.40
2022-12-11T10:53:55.370Z,16.67
2022-12-11T10:56:31.500Z,16.58
2022-12-11T10:59:00.490Z,16.88
2022-12-11T11:01:32.550Z,18.77
2022-12-11T11:04:15.166Z,14.07
2022-12-11T11:06:42.541Z,11.95
2022-12-11T11:09:42.171Z,23.13
2022-12-11T11:12:29.049Z,15.32
2022-12-11T11:15:13.952Z,14.13
2022-12-11T11:17:54.605Z,18.50
2022-12-11T11:20:26.756Z,17.90
2022-12-11T11:22:56.840Z,14.32
2022-12-11T11:25:26.347Z,17.02
2022-12-11T11:28:06.257Z,17.98
2022-12-11T11:30:42.441Z,20.23
2022-12-11T11:33:23.990Z,16.63
2022-12-11T11:36:01.637Z,15.95
2022-12-11T11:38:41.227Z,18.33
2022-12-11T11:41:15.760Z,21.92
2022-12-11T11:43:47.490Z,19.50
2022-12-11T11:46:33.408Z,16.15
2022-12-11T11:49:12.815Z,19.25
2022-12-11T11:51:45.462Z,14.57
2022-12-11T11:54:34.564Z,16.25
2022-12-11T11:57:12.481Z,17.23
2022-12-11T11:59:56.559Z,16.50
2022-12-11T12:02:24.018Z,18.35
2022-12-11T12:04:51.966Z,12.77
2022-12-11T12:07:45.219Z,12.25
2022-12-11T12:10:56.713Z,10.48
2022-12-11T12:13:50.595Z,15.43
2022-12-11T12:16:52.180Z,20.02
2022-12-11T12:19:41.285Z,14.43
2022-12-11T12:22:47.838Z,16.65
2022-12-11T12:25:51.361Z,19.38
2022-12-11T12:29:05.231Z,23.23
2022-12-11T12:31:35.574Z,17.85
2022-12-11T12:34:17.993Z,23.20
2022-12-11T12:36:51.004Z,20.92
2022-12-11T12:39:21.683Z,18.67
2022-12-11T12:42:14.200Z,14.90
2022-12-11T12:45:19.305Z,19.65
2022-12-11T12:47:53.176Z,19.23
2022-12-11T12:50:25.219Z,30.80
2022-12-11T12:52:54.306Z,20.27
2022-12-11T12:55:24.942Z,26.23
2022-12-11T12:58:00.603Z,18.05
2022-12-11T13:00:29.300Z,17.48
2022-12-11T13:02:57.764Z,26.23
2022-12-11T13:05:34.455Z,20.27
2022-12-11T13:08:05.455Z,17.10
2022-12-11T13:10:36.205Z,22.67
2022-12-11T13:13:05.937Z,26.20
2022-12-11T13:15:40.755Z,20.63
2022-12-11T13:18:35.875Z,25.58
2022-12-11T13:21:35.178Z,25.75
2022-12-11T13:24:21.069Z,26.25
2022-12-11T13:26:50.126Z,20.70
2022-12-11T13:29:37.741Z,28.30
2022-12-11T13:32:08.221Z,16.05
2022-12-11T13:34:39.278Z,23.98
2022-12-11T13:37:20.636Z,30.77
2022-12-11T13:39:48.100Z,17.15
2022-12-11T13:42:48.337Z,23.63
2022-12-11T13:45:44.061Z,18.85
2022-12-11T13:48:29.504Z,22.95
2022-12-11T13:50:59.084Z,20.27
2022-12-11T13:53:26.460Z,19.73
2022-12-11T13:56:06.345Z,19.23
2022-12-11T13:58:37.964Z,15.07
2022-12-11T14:01:15.908Z,21.02
2022-12-11T14:04:01.402Z,21.77
2022-12-11T14:06:31.213Z,21.90
2022-12-11T14:09:01.528Z,20.33
2022-12-11T14:11:37.072Z,23.98
2022-12-11T14:14:15.296Z,23.58
2022-12-11T14:16:43.585Z,23.00
2022-12-11T14:19:17.664Z,22.63
2022-12-11T14:21:59.265Z,25.35
2022-12-11T14:24:27.080Z,21.77
2022-12-11T14:26:55.453Z,25.25
2022-12-11T14:29:32.853Z,18.38
2022-12-11T14:32:04.703Z,18.63
2022-12-11T14:34:37.024Z,19.08
2022-12-11T14:37:07.871Z,22.05
2022-12-11T14:39:40.987Z,22.98
2022-12-11T14:42:13.912Z,24.85
2022-12-11T14:45:00.580Z,21.55
2022-12-11T14:47:32.624Z,18.65
2022-12-11T14:50:13.179Z,16.05
2022-12-11T14:52:47.227Z,18.40
2022-12-11T14:55:28.671Z,15.43
2022-12-11T14:58:21.236Z,17.08
2022-12-11T15:01:06.704Z,20.83
2022-12-11T15:03:39.461Z,19.50
2022-12-11T15:06:24.556Z,21.35
2022-12-11T15:08:53.679Z,19.33
2022-12-11T15:11:21.986Z,23.17
2022-12-11T15:13:53.295Z,20.05
2022-12-11T15:16:23.199Z,20.00
2022-12-11T15:18:53.001Z,21.33
2022-12-11T15:21:29.717Z,24.58
2022-12-11T15:23:59.884Z,18.90
2022-12-11T15:26:39.011Z,18.35
2022-12-11T15:29:37.134Z,22.33
2022-12-11T15:32:14.093Z,18.45
2022-12-11T15:34:48.829Z,23.55
2022-12-11T15:37:23.823Z,23.23
2022-12-11T15:39:53.593Z,21.23
2022-12-11T15:42:44.171Z,18.90
2022-12-11T15:45:23.477Z,21.08
2022-12-11T15:47:52.049Z,17.27
2022-12-11T15:50:25.356Z,19.33
2022-12-11T15:52:54.337Z,23.67
2022-12-11T15:55:23.304Z,15.85
2022-12-11T15:57:55.040Z,20.63
2022-12-11T16:00:23.992Z,23.27
2022-12-11T16:02:52.210Z,17.00
2022-12-11T16:05:19.966Z,22.50
2022-12-11T16:07:48.884Z,22.65
2022-12-11T16:10:17.808Z,18.67
2022-12-11T16:12:45.719Z,18.73
2022-12-11T16:15:21.496Z,19.15
2022-12-11T16:17:59.512Z,19.88
2022-12-11T16:20:26.803Z,16.25
2022-12-11T16:22:54.246Z,16.35
2022-12-11T16:25:21.662Z,14.65
2022-12-11T16:27:50.337Z,13.93
2022-12-11T16:30:17.885Z,15.32
2022-12-11T16:32:45.288Z,15.88
2022-12-11T16:35:13.228Z,17.08
2022-12-11T16:37:40.854Z,13.45
2022-12-11T16:40:09.324Z,14.75
2022-12-11T16:42:38.199Z,16.67
2022-12-11T16:45:12.429Z,16.52
2022-12-11T16:47:40.068Z,18.05
2022-12-11T16:50:08.168Z,16.55
2022-12-11T16:52:35.453Z,11.85
2022-12-11T16:55:03.304Z,19.48
2022-12-11T16:57:30.752Z,14.88
2022-12-11T16:59:58.360Z,9.43
2022-12-11T17:02:25.874Z,18.25
2022-12-11T17:04:54.117Z,11.93
2022-12-11T17:07:21.571Z,14.75
2022-12-11T17:09:48.930Z,18.13
2022-12-11T17:12:16.341Z,17.77
2022-12-11T17:14:44.220Z,13.25
2022-12-11T17:17:11.547Z,16.00
2022-12-11T17:19:38.792Z,16.67
2022-12-11T17:22:06.114Z,16.20
2022-12-11T17:24:33.600Z,14.05
2022-12-11T17:27:01.124Z,15.02
2022-12-11T17:29:28.628Z,16.73
2022-12-11T17:31:55.965Z,20.75
2022-12-11T17:34:23.310Z,13.93
2022-12-11T17:36:51.410Z,18.48
2022-12-11T17:39:20.167Z,13.23
2022-12-11T17:41:47.520Z,15.73
2022-12-11T17:44:14.863Z,15.85
2022-12-11T17:46:43.222Z,18.88
2022-12-11T17:49:10.781Z,14.98
2022-12-11T17:51:38.241Z,15.98
2022-12-11T17:54:05.640Z,16.42
2022-12-11T17:56:34.899Z,15.52
2022-12-11T17:59:02.842Z,18.60
2022-12-11T18:01:30.296Z,16.50
2022-12-11T18:04:01.413Z,16.92
2022-12-11T18:06:29.991Z,16.38
2022-12-11T18:08:57.845Z,12.90
2022-12-11T18:11:25.682Z,14.30
2022-12-11T18:13:53.752Z,14.32
2022-12-11T18:16:24.665Z,16.90
2022-12-11T18:18:52.622Z,12.27
2022-12-11T18:21:26.330Z,16.17
2022-12-11T18:23:54.468Z,18.00
2022-12-11T18:26:22.329Z,18.88
2022-12-11T18:28:50.930Z,20.63
2022-12-11T18:31:19.997Z,11.65
2022-12-11T18:33:47.705Z,15.95
2022-12-11T18:36:18.211Z,15.27
2022-12-11T18:38:46.289Z,18.42
2022-12-11T18:41:14.887Z,18.58
2022-12-11T18:43:42.867Z,18.65
2022-12-11T18:48:57.634Z,13.48
2022-12-11T18:51:25.775Z,19.02
2022-12-11T18:53:53.566Z,17.05
2022-12-11T18:56:23.044Z,14.50
2022-12-11T18:58:51.124Z,13.18
2022-12-11T19:01:26.889Z,13.45
2022-12-11T19:04:04.268Z,16.63
2022-12-11T19:06:41.113Z,14.63
2022-12-11T19:09:14.150Z,15.68
2022-12-11T19:11:42.283Z,14.50
2022-12-11T19:14:10.751Z,15.85
2022-12-11T19:16:41.320Z,14.02
2022-12-11T19:19:13.189Z,14.98
2022-12-11T19:21:41.623Z,17.38
2022-12-11T19:24:11.747Z,15.43
2022-12-11T19:26:39.123Z,15.15
2022-12-11T19:29:06.823Z,14.43
2022-12-11T19:31:34.632Z,14.68
2022-12-11T19:34:03.020Z,13.10
2022-12-11T19:36:31.748Z,17.52
2022-12-11T19:39:01.758Z,14.13
2022-12-11T19:41:30.754Z,13.27
2022-12-11T19:43:59.500Z,17.20
2022-12-11T19:46:28.931Z,15.93
2022-12-11T19:48:58.294Z,16.35
2022-12-11T19:51:33.948Z,18.48
2022-12-11T19:54:04.891Z,17.05
2022-12-11T19:56:33.135Z,13.95
2022-12-11T19:59:03.042Z,15.95
2022-12-11T20:01:32.370Z,15.02
2022-12-11T20:04:02.617Z,17.27
2022-12-11T20:06:32.115Z,16.23
2022-12-11T20:09:00.149Z,19.05
2022-12-11T20:11:35.942Z,13.68
2022-12-11T20:14:03.937Z,14.45
2022-12-11T20:17:08.694Z,17.08
2022-12-11T20:19:19.457Z,16.88
2022-12-11T20:21:46.993Z,20.48
2022-12-11T20:24:15.490Z,17.98
2022-12-11T20:26:46.180Z,14.07
2022-12-11T20:29:14.248Z,15.02
2022-12-11T20:31:47.981Z,14.25
2022-12-11T20:34:18.934Z,14.50
2022-12-11T20:36:49.619Z,18.10
2022-12-11T20:39:17.234Z,14.68
2022-12-11T20:41:44.672Z,15.88
2022-12-11T20:44:12.096Z,14.57
2022-12-11T20:46:39.458Z,14.63
2022-12-11T20:49:12.708Z,15.35
2022-12-11T20:51:41.217Z,13.90
2022-12-11T20:54:08.679Z,15.73
2022-12-11T20:56:38.382Z,15.88
2022-12-11T20:59:19.665Z,13.33
2022-12-11T21:01:52.000Z,15.23
2022-12-11T21:04:52.860Z,17.48
2022-12-11T21:07:38.370Z,16.63
2022-12-11T21:10:14.235Z,15.45
2022-12-11T21:12:42.123Z,15.63
2022-12-11T21:15:12.185Z,18.25
2022-12-11T21:17:42.566Z,12.45
2022-12-11T21:20:11.352Z,14.25
2022-12-11T21:22:38.925Z,16.20
2022-12-11T21:25:08.209Z,15.75
2022-12-11T21:27:36.853Z,14.93
2022-12-11T21:30:05.966Z,20.63
2022-12-11T21:32:35.738Z,17.30
2022-12-11T21:35:04.199Z,14.55
2022-12-11T21:37:31.961Z,16.05
2022-12-11T21:40:00.304Z,14.30
2022-12-11T21:42:28.074Z,16.08
2022-12-11T21:45:37.490Z,15.45
2022-12-11T21:47:43.902Z,12.00
2022-12-11T21:50:14.531Z,13.30
2022-12-11T21:52:43.375Z,14.75
2022-12-11T21:55:12.428Z,14.60
2022-12-11T21:57:40.576Z,11.70
2022-12-11T22:00:09.494Z,12.13
2022-12-11T22:02:41.336Z,11.38
2022-12-11T22:05:09.862Z,20.52
2022-12-11T22:07:37.519Z,11.93
2022-12-11T22:10:06.014Z,16.90
2022-12-11T22:12:33.928Z,15.30
2022-12-11T22:15:01.992Z,10.98
2022-12-11T22:17:29.910Z,11.93
2022-12-11T22:19:57.970Z,13.77
2022-12-11T22:22:29.299Z,11.43
2022-12-11T22:24:57.849Z,11.80
2022-12-11T22:27:26.285Z,14.30
2022-12-11T22:29:54.570Z,13.30
2022-12-11T22:32:21.990Z,13.27
2022-12-11T22:34:49.380Z,13.73
2022-12-11T22:37:16.728Z,17.77
2022-12-11T22:39:44.035Z,15.50
2022-12-11T22:42:11.423Z,13.63
2022-12-11T22:44:39.873Z,12.75
2022-12-11T22:47:07.450Z,13.30
2022-12-11T22:49:36.091Z,15.00
2022-12-11T22:52:03.758Z,15.75
2022-12-11T22:54:31.053Z,14.55
2022-12-11T22:56:58.832Z,14.43
2022-12-11T22:59:26.240Z,13.48
2022-12-11T23:01:53.596Z,19.13
2022-12-11T23:04:20.979Z,12.90
2022-12-11T23:06:48.503Z,13.02
2022-12-11T23:09:16.107Z,19.95
2022-12-11T23:11:43.609Z,15.55
2022-12-11T23:14:15.645Z,12.75
2022-12-11T23:16:44.240Z,19.63
2022-12-11T23:19:12.964Z,15.07
2022-12-11T23:21:40.789Z,12.52
2022-12-11T23:24:09.040Z,14.23
2022-12-11T23:26:40.405Z,10.23
2022-12-11T23:29:08.440Z,14.40
2022-12-11T23:31:36.320Z,11.02
2022-12-11T23:34:04.160Z,14.95
2022-12-11T23:36:31.740Z,10.95
2022-12-11T23:38:59.198Z,16.25
2022-12-11T23:41:26.569Z,13.35
2022-12-11T23:43:57.747Z,19.00
2022-12-11T23:46:25.722Z,16.38
2022-12-11T23:48:53.966Z,18.00
2022-12-11T23:51:23.563Z,16.25
2022-12-11T23:53:51.633Z,13.82
2022-12-11T23:56:28.119Z,19.10
2022-12-11T23:58:56.282Z,13.40
